createdAt,value
2018-04-29T00:00:17.629Z,14.61
2018-04-29T00:01:17.655Z,14.46
2018-04-29T00:02:17.699Z,14.56
2018-04-29T00:03:17.748Z,14.50
2018-04-29T00:04:17.796Z,14.42
2018-04-29T00:05:17.885Z,14.37
2018-04-29T00:06:17.895Z,14.24
2018-04-29T00:07:17.944Z,14.29
2018-04-29T00:08:17.992Z,14.21
2018-04-29T00:09:18.045Z,14.14
2018-04-29T00:10:18.125Z,14.09
2018-04-29T00:11:18.142Z,14.14
2018-04-29T00:12:18.190Z,14.16
2018-04-29T00:13:18.240Z,14.20
2018-04-29T00:14:18.288Z,14.24
2018-04-29T00:15:18.369Z,14.29
2018-04-29T00:16:18.386Z,14.25
2018-04-29T00:17:18.460Z,14.27
2018-04-29T00:18:18.486Z,14.31
2018-04-29T00:19:18.539Z,14.28
2018-04-29T00:20:18.587Z,14.37
2018-04-29T00:21:18.632Z,14.38
2018-04-29T00:22:18.704Z,14.38
2018-04-29T00:23:18.730Z,14.38
2018-04-29T00:24:18.776Z,14.39
2018-04-29T00:25:18.827Z,14.38
2018-04-29T00:26:18.877Z,14.38
2018-04-29T00:27:18.949Z,14.42
2018-04-29T00:28:18.974Z,14.37
2018-04-29T00:29:19.023Z,14.43
2018-04-29T00:30:19.072Z,14.44
2018-04-29T00:31:19.149Z,14.27
2018-04-29T00:32:19.171Z,14.27
2018-04-29T00:33:19.241Z,14.29
2018-04-29T00:34:19.269Z,14.29
2018-04-29T00:35:19.317Z,14.32
2018-04-29T00:36:19.365Z,14.29
2018-04-29T00:37:19.417Z,14.39
2018-04-29T00:38:19.485Z,14.28
2018-04-29T00:39:19.535Z,14.37
2018-04-29T00:40:19.560Z,14.35
2018-04-29T00:41:19.609Z,14.44
2018-04-29T00:42:19.661Z,14.39
2018-04-29T00:43:19.709Z,14.46
2018-04-29T00:44:19.790Z,14.47
2018-04-29T00:45:19.807Z,14.49
2018-04-29T00:46:19.854Z,14.42
2018-04-29T00:47:19.914Z,14.37
2018-04-29T00:48:19.952Z,14.42
2018-04-29T00:49:20.024Z,14.47
2018-04-29T00:50:20.050Z,14.37
2018-04-29T00:51:20.101Z,14.44
2018-04-29T00:52:20.148Z,14.49
2018-04-29T00:53:20.275Z,14.39
2018-04-29T00:54:20.283Z,14.39
2018-04-29T00:55:20.295Z,14.52
2018-04-29T00:56:20.347Z,14.42
2018-04-29T00:57:20.394Z,14.37
2018-04-29T00:58:20.449Z,14.38
2018-04-29T00:59:20.520Z,14.34
2018-04-29T01:00:20.539Z,14.28
2018-04-29T01:01:20.594Z,14.34
2018-04-29T01:02:20.636Z,14.27
2018-04-29T01:03:20.686Z,14.24
2018-04-29T01:04:20.767Z,14.29
2018-04-29T01:05:20.783Z,14.17
2018-04-29T01:06:20.834Z,14.14
2018-04-29T01:07:20.887Z,14.14
2018-04-29T01:08:20.928Z,14.10
2018-04-29T01:09:21.019Z,14.14
2018-04-29T01:10:21.029Z,14.14
2018-04-29T01:11:21.076Z,14.14
2018-04-29T01:12:21.125Z,14.12
2018-04-29T01:13:21.176Z,14.17
2018-04-29T01:14:21.245Z,14.14
2018-04-29T01:15:21.301Z,14.10
2018-04-29T01:16:21.320Z,13.95
2018-04-29T01:17:21.369Z,13.96
2018-04-29T01:18:21.419Z,13.88
2018-04-29T01:19:21.464Z,13.81
2018-04-29T01:20:21.535Z,13.81
2018-04-29T01:21:21.586Z,13.83
2018-04-29T01:22:21.612Z,13.83
2018-04-29T01:23:21.663Z,13.94
2018-04-29T01:24:21.709Z,13.87
2018-04-29T01:25:21.760Z,13.92
2018-04-29T01:26:21.831Z,13.83
2018-04-29T01:27:21.856Z,13.83
2018-04-29T01:28:21.906Z,13.88
2018-04-29T01:29:21.952Z,13.84
2018-04-29T01:30:22.003Z,13.83
2018-04-29T01:31:22.074Z,13.84
2018-04-29T01:32:22.103Z,13.80
2018-04-29T01:33:22.148Z,13.80
2018-04-29T01:34:22.197Z,13.83
2018-04-29T01:35:22.247Z,13.91
2018-04-29T01:36:22.328Z,13.92
2018-04-29T01:37:22.340Z,13.87
2018-04-29T01:38:22.392Z,13.87
2018-04-29T01:39:22.439Z,13.87
2018-04-29T01:40:22.487Z,13.84
2018-04-29T01:41:22.573Z,13.81
2018-04-29T01:42:22.587Z,13.88
2018-04-29T01:43:22.635Z,13.77
2018-04-29T01:44:22.683Z,13.77
2018-04-29T01:45:22.730Z,13.69
2018-04-29T01:46:22.877Z,13.69
2018-04-29T01:47:22.852Z,13.65
2018-04-29T01:48:22.875Z,13.52
2018-04-29T01:49:22.930Z,13.49
2018-04-29T01:50:22.974Z,13.43
2018-04-29T01:51:23.027Z,13.40
2018-04-29T01:52:23.102Z,13.33
2018-04-29T01:53:23.123Z,13.21
2018-04-29T01:54:23.169Z,13.20
2018-04-29T01:55:23.217Z,13.21
2018-04-29T01:56:23.264Z,13.09
2018-04-29T01:57:23.337Z,13.07
2018-04-29T01:58:23.386Z,13.03
2018-04-29T01:59:23.413Z,13.15
2018-04-29T02:00:23.459Z,13.12
2018-04-29T02:01:23.508Z,13.02
2018-04-29T02:02:23.559Z,13.03
2018-04-29T02:03:23.638Z,13.00
2018-04-29T02:04:23.657Z,12.88
2018-04-29T02:05:23.701Z,12.89
2018-04-29T02:06:23.750Z,12.92
2018-04-29T02:07:23.799Z,12.78
2018-04-29T02:08:23.878Z,12.79
2018-04-29T02:09:23.899Z,12.79
2018-04-29T02:10:23.945Z,12.71
2018-04-29T02:11:23.993Z,12.69
2018-04-29T02:12:24.041Z,12.71
2018-04-29T02:13:24.113Z,12.71
2018-04-29T02:14:24.163Z,12.74
2018-04-29T02:15:24.186Z,12.78
2018-04-29T02:16:24.235Z,12.70
2018-04-29T02:17:24.282Z,12.71
2018-04-29T02:18:24.334Z,12.70
2018-04-29T02:19:24.407Z,12.74
2018-04-29T02:20:24.427Z,12.77
2018-04-29T02:21:24.475Z,12.82
2018-04-29T02:22:24.528Z,12.66
2018-04-29T02:23:24.576Z,12.63
2018-04-29T02:24:24.652Z,12.67
2018-04-29T02:25:24.669Z,12.66
2018-04-29T02:26:24.719Z,12.66
2018-04-29T02:27:24.767Z,12.78
2018-04-29T02:28:24.815Z,12.67
2018-04-29T02:29:24.893Z,12.63
2018-04-29T02:30:24.913Z,12.60
2018-04-29T02:31:25.015Z,12.59
2018-04-29T02:32:25.007Z,12.59
2018-04-29T02:33:25.059Z,12.49
2018-04-29T02:34:25.108Z,12.51
2018-04-29T02:35:25.185Z,12.57
2018-04-29T02:36:25.236Z,12.41
2018-04-29T02:37:25.248Z,12.49
2018-04-29T02:38:25.299Z,12.33
2018-04-29T02:39:25.351Z,12.38
2018-04-29T02:40:25.396Z,12.39
2018-04-29T02:41:25.472Z,12.34
2018-04-29T02:42:25.493Z,12.26
2018-04-29T02:43:25.546Z,12.23
2018-04-29T02:44:25.607Z,12.16
2018-04-29T02:45:25.633Z,12.11
2018-04-29T02:46:25.719Z,12.09
2018-04-29T02:47:25.732Z,12.08
2018-04-29T02:48:25.779Z,12.08
2018-04-29T02:49:25.830Z,12.02
2018-04-29T02:50:25.878Z,11.97
2018-04-29T02:51:25.949Z,12.02
2018-04-29T02:52:25.972Z,11.97
2018-04-29T02:53:26.022Z,11.94
2018-04-29T02:54:26.069Z,11.93
2018-04-29T02:55:26.115Z,11.99
2018-04-29T02:56:26.197Z,11.94
2018-04-29T02:57:26.221Z,12.06
2018-04-29T02:58:26.263Z,11.96
2018-04-29T02:59:26.309Z,11.94
2018-04-29T03:00:26.356Z,11.96
2018-04-29T03:01:26.442Z,11.96
2018-04-29T03:02:26.453Z,11.99
2018-04-29T03:03:26.501Z,11.99
2018-04-29T03:04:26.549Z,11.94
2018-04-29T03:05:26.596Z,12.02
2018-04-29T03:06:26.666Z,11.93
2018-04-29T03:07:26.722Z,11.97
2018-04-29T03:08:26.738Z,11.99
2018-04-29T03:09:26.789Z,11.93
2018-04-29T03:10:26.838Z,11.90
2018-04-29T03:11:26.888Z,11.93
2018-04-29T03:12:26.962Z,11.87
2018-04-29T03:13:26.984Z,11.96
2018-04-29T03:14:27.029Z,11.87
2018-04-29T03:15:27.074Z,11.83
2018-04-29T03:16:27.625Z,11.83
2018-04-29T03:17:27.194Z,11.87
2018-04-29T03:18:27.241Z,11.83
2018-04-29T03:19:27.278Z,11.86
2018-04-29T03:20:27.313Z,11.85
2018-04-29T03:21:27.360Z,11.85
2018-04-29T03:22:27.414Z,11.72
2018-04-29T03:23:27.482Z,11.77
2018-04-29T03:24:27.503Z,11.80
2018-04-29T03:25:27.552Z,11.71
2018-04-29T03:26:27.600Z,11.77
2018-04-29T03:27:27.649Z,11.75
2018-04-29T03:28:27.721Z,11.77
2018-04-29T03:29:27.771Z,11.75
2018-04-29T03:30:27.796Z,11.82
2018-04-29T03:31:27.841Z,11.75
2018-04-29T03:32:27.897Z,11.83
2018-04-29T03:33:27.935Z,11.86
2018-04-29T03:34:28.013Z,11.86
2018-04-29T03:35:28.031Z,11.82
2018-04-29T03:36:28.079Z,11.89
2018-04-29T03:37:28.127Z,11.86
2018-04-29T03:38:28.176Z,11.83
2018-04-29T03:39:28.247Z,11.94
2018-04-29T03:40:28.276Z,11.96
2018-04-29T03:41:28.318Z,11.99
2018-04-29T03:42:28.367Z,12.11
2018-04-29T03:43:28.414Z,12.11
2018-04-29T03:44:28.495Z,12.09
2018-04-29T03:45:28.511Z,12.23
2018-04-29T03:46:28.557Z,12.21
2018-04-29T03:47:28.606Z,12.06
2018-04-29T03:48:28.654Z,12.20
2018-04-29T03:49:28.739Z,12.21
2018-04-29T03:50:28.749Z,12.15
2018-04-29T03:51:28.797Z,12.29
2018-04-29T03:52:28.850Z,12.24
2018-04-29T03:53:28.892Z,12.30
2018-04-29T03:54:28.969Z,12.39
2018-04-29T03:55:28.989Z,12.38
2018-04-29T03:56:29.035Z,12.41
2018-04-29T03:57:29.091Z,12.31
2018-04-29T03:58:29.135Z,12.51
2018-04-29T03:59:29.204Z,12.42
2018-04-29T04:00:29.226Z,12.48
2018-04-29T04:01:29.303Z,12.48
2018-04-29T04:02:29.393Z,12.51
2018-04-29T04:03:29.370Z,12.49
2018-04-29T04:04:29.419Z,12.63
2018-04-29T04:05:29.466Z,12.63
2018-04-29T04:06:29.539Z,12.70
2018-04-29T04:07:29.569Z,12.64
2018-04-29T04:08:29.611Z,12.75
2018-04-29T04:09:29.658Z,12.67
2018-04-29T04:10:29.735Z,12.78
2018-04-29T04:11:29.782Z,12.64
2018-04-29T04:12:29.802Z,12.62
2018-04-29T04:13:29.850Z,12.57
2018-04-29T04:14:29.901Z,12.59
2018-04-29T04:15:29.947Z,12.60
2018-04-29T04:16:30.023Z,12.70
2018-04-29T04:17:30.042Z,12.75
2018-04-29T04:18:30.090Z,12.87
2018-04-29T04:19:30.138Z,12.85
2018-04-29T04:20:30.261Z,12.84
2018-04-29T04:21:30.259Z,13.02
2018-04-29T04:22:30.284Z,13.07
2018-04-29T04:23:30.355Z,13.09
2018-04-29T04:24:30.377Z,13.20
2018-04-29T04:25:30.425Z,13.22
2018-04-29T04:26:30.476Z,13.27
2018-04-29T04:27:30.527Z,13.22
2018-04-29T04:28:30.593Z,13.33
2018-04-29T04:29:30.618Z,13.33
2018-04-29T04:30:30.671Z,13.38
2018-04-29T04:31:30.713Z,13.37
2018-04-29T04:32:30.762Z,13.41
2018-04-29T04:33:30.834Z,13.32
2018-04-29T04:34:30.860Z,13.36
2018-04-29T04:35:30.912Z,13.40
2018-04-29T04:36:30.962Z,13.44
2018-04-29T04:37:31.045Z,13.54
2018-04-29T04:38:31.636Z,13.59
2018-04-29T04:39:31.103Z,13.61
2018-04-29T04:40:31.154Z,13.55
2018-04-29T04:41:31.202Z,13.59
2018-04-29T04:42:31.274Z,13.69
2018-04-29T04:43:31.293Z,13.56
2018-04-29T04:44:31.376Z,13.59
2018-04-29T04:45:31.391Z,13.56
2018-04-29T04:46:31.439Z,13.74
2018-04-29T04:47:31.489Z,13.62
2018-04-29T04:48:31.537Z,13.71
2018-04-29T04:49:31.615Z,13.56
2018-04-29T04:50:31.636Z,13.70
2018-04-29T04:51:31.685Z,13.67
2018-04-29T04:52:31.732Z,13.74
2018-04-29T04:53:31.793Z,13.65
2018-04-29T04:54:31.853Z,13.74
2018-04-29T04:55:31.877Z,13.67
2018-04-29T04:56:31.925Z,13.70
2018-04-29T04:57:31.976Z,13.74
2018-04-29T04:58:32.062Z,13.70
2018-04-29T04:59:32.078Z,13.73
2018-04-29T05:00:32.120Z,13.71
2018-04-29T05:01:32.171Z,13.79
2018-04-29T05:02:32.219Z,13.81
2018-04-29T05:03:32.297Z,13.83
2018-04-29T05:04:32.315Z,13.88
2018-04-29T05:05:32.363Z,13.94
2018-04-29T05:06:32.414Z,13.98
2018-04-29T05:07:32.461Z,14.02
2018-04-29T05:08:32.549Z,14.02
2018-04-29T05:09:32.558Z,14.02
2018-04-29T05:10:32.606Z,13.99
2018-04-29T05:11:32.657Z,14.01
2018-04-29T05:12:32.704Z,13.99
2018-04-29T05:13:32.779Z,13.99
2018-04-29T05:14:32.806Z,14.01
2018-04-29T05:15:32.889Z,14.02
2018-04-29T05:16:32.904Z,13.99
2018-04-29T05:17:32.947Z,14.10
2018-04-29T05:18:32.998Z,14.16
2018-04-29T05:19:33.045Z,14.07
2018-04-29T05:20:33.115Z,14.12
2018-04-29T05:21:33.144Z,14.12
2018-04-29T05:22:33.190Z,14.17
2018-04-29T05:23:33.242Z,14.14
2018-04-29T05:24:33.287Z,14.17
2018-04-29T05:25:33.375Z,14.12
2018-04-29T05:26:33.427Z,14.07
2018-04-29T05:27:33.435Z,14.14
2018-04-29T05:28:33.482Z,13.98
2018-04-29T05:29:33.531Z,14.02
2018-04-29T05:30:33.620Z,13.95
2018-04-29T05:31:33.631Z,13.91
2018-04-29T05:32:33.676Z,13.95
2018-04-29T05:33:33.729Z,13.87
2018-04-29T05:34:33.774Z,13.89
2018-04-29T05:35:33.848Z,13.99
2018-04-29T05:36:33.873Z,13.95
2018-04-29T05:37:33.920Z,13.94
2018-04-29T05:38:33.972Z,13.95
2018-04-29T05:39:34.020Z,13.99
2018-04-29T05:40:34.113Z,13.94
2018-04-29T05:41:34.117Z,13.96
2018-04-29T05:42:34.165Z,13.95
2018-04-29T05:43:34.211Z,13.96
2018-04-29T05:44:34.261Z,14.04
2018-04-29T05:45:34.337Z,13.99
2018-04-29T05:46:34.360Z,14.01
2018-04-29T05:47:34.407Z,13.98
2018-04-29T05:48:34.457Z,14.10
2018-04-29T05:49:34.505Z,14.17
2018-04-29T05:50:34.576Z,14.12
2018-04-29T05:51:34.625Z,14.17
2018-04-29T05:52:34.651Z,14.24
2018-04-29T05:53:34.699Z,14.27
2018-04-29T05:54:34.750Z,14.29
2018-04-29T05:55:34.797Z,14.31
2018-04-29T05:56:34.874Z,14.27
2018-04-29T05:57:34.894Z,14.19
2018-04-29T05:58:34.942Z,14.32
2018-04-29T05:59:34.992Z,14.32
2018-04-29T06:00:35.040Z,14.27
2018-04-29T06:01:35.120Z,14.42
2018-04-29T06:02:35.140Z,14.32
2018-04-29T06:03:35.190Z,14.38
2018-04-29T06:04:35.236Z,14.31
2018-04-29T06:05:35.285Z,14.39
2018-04-29T06:06:35.374Z,14.37
2018-04-29T06:07:35.418Z,14.28
2018-04-29T06:08:35.432Z,14.35
2018-04-29T06:09:35.482Z,14.24
2018-04-29T06:10:35.532Z,14.34
2018-04-29T06:11:35.588Z,14.35
2018-04-29T06:12:35.655Z,14.44
2018-04-29T06:13:35.681Z,14.39
2018-04-29T06:14:35.728Z,14.46
2018-04-29T06:15:35.785Z,14.52
2018-04-29T06:16:35.827Z,14.57
2018-04-29T06:17:35.904Z,14.56
2018-04-29T06:18:35.923Z,14.52
2018-04-29T06:19:35.978Z,14.56
2018-04-29T06:20:36.130Z,14.67
2018-04-29T06:21:36.071Z,14.68
2018-04-29T06:22:36.149Z,14.69
2018-04-29T06:23:36.168Z,14.72
2018-04-29T06:24:36.215Z,14.78
2018-04-29T06:25:36.271Z,14.88
2018-04-29T06:26:36.316Z,14.94
2018-04-29T06:27:36.398Z,15.02
2018-04-29T06:28:36.412Z,14.98
2018-04-29T06:29:36.459Z,15.08
2018-04-29T06:30:36.510Z,15.23
2018-04-29T06:31:36.561Z,15.19
2018-04-29T06:32:36.639Z,15.36
2018-04-29T06:33:36.656Z,15.54
2018-04-29T06:34:36.757Z,15.56
2018-04-29T06:35:36.759Z,15.60
2018-04-29T06:36:36.805Z,15.72
2018-04-29T06:37:36.877Z,15.70
2018-04-29T06:38:36.904Z,15.68
2018-04-29T06:39:36.997Z,15.81
2018-04-29T06:40:37.001Z,15.88
2018-04-29T06:41:37.055Z,16.09
2018-04-29T06:42:37.103Z,16.49
2018-04-29T06:43:37.181Z,17.20
2018-04-29T06:44:37.224Z,17.92
2018-04-29T06:45:37.251Z,18.76
2018-04-29T06:46:37.302Z,19.35
2018-04-29T06:47:37.350Z,19.80
2018-04-29T06:48:37.400Z,20.51
2018-04-29T06:49:37.478Z,20.86
2018-04-29T06:50:37.503Z,21.42
2018-04-29T06:51:37.551Z,22.07
2018-04-29T06:52:37.602Z,22.62
2018-04-29T06:53:37.652Z,23.08
2018-04-29T06:54:37.726Z,23.71
2018-04-29T06:55:37.779Z,23.92
2018-04-29T06:56:37.806Z,24.29
2018-04-29T06:57:37.855Z,24.80
2018-04-29T06:58:37.905Z,24.95
2018-04-29T06:59:37.958Z,25.15
2018-04-29T07:00:38.031Z,25.25
2018-04-29T07:01:38.070Z,25.27
2018-04-29T07:02:38.113Z,25.09
2018-04-29T07:03:38.164Z,24.47
2018-04-29T07:04:38.221Z,24.64
2018-04-29T07:05:38.344Z,25.17
2018-04-29T07:06:38.321Z,25.59
2018-04-29T07:07:38.374Z,25.87
2018-04-29T07:08:38.429Z,26.21
2018-04-29T07:09:38.477Z,26.44
2018-04-29T07:10:38.567Z,26.68
2018-04-29T07:11:38.584Z,26.25
2018-04-29T07:12:38.638Z,26.04
2018-04-29T07:13:38.690Z,26.21
2018-04-29T07:14:38.744Z,26.25
2018-04-29T07:15:38.838Z,26.02
2018-04-29T07:16:38.852Z,25.69
2018-04-29T07:17:38.904Z,26.01
2018-04-29T07:18:38.957Z,26.39
2018-04-29T07:19:39.012Z,26.46
2018-04-29T07:20:39.094Z,25.94
2018-04-29T07:21:39.118Z,25.91
2018-04-29T07:22:39.175Z,25.83
2018-04-29T07:23:39.226Z,26.43
2018-04-29T07:24:39.285Z,26.29
2018-04-29T07:25:39.358Z,25.99
2018-04-29T07:26:39.421Z,26.15
2018-04-29T07:27:39.446Z,25.94
2018-04-29T07:28:39.504Z,26.76
2018-04-29T07:29:39.554Z,26.59
2018-04-29T07:30:39.611Z,26.86
2018-04-29T07:31:39.694Z,26.44
2018-04-29T07:32:39.731Z,26.84
2018-04-29T07:33:39.782Z,27.19
2018-04-29T07:34:39.827Z,27.73
2018-04-29T07:35:39.881Z,28.06
2018-04-29T07:36:39.964Z,28.09
2018-04-29T07:37:39.989Z,27.51
2018-04-29T07:38:40.045Z,27.09
2018-04-29T07:39:40.099Z,26.74
2018-04-29T07:40:40.160Z,26.84
2018-04-29T07:41:40.236Z,27.19
2018-04-29T07:42:41.217Z,27.46
2018-04-29T07:43:40.322Z,27.10
2018-04-29T07:44:40.373Z,26.84
2018-04-29T07:45:40.431Z,25.25
2018-04-29T07:46:40.714Z,25.13
2018-04-29T07:47:40.540Z,25.35
2018-04-29T07:48:40.619Z,26.22
2018-04-29T07:49:40.651Z,26.44
2018-04-29T07:50:40.704Z,27.13
2018-04-29T07:51:40.766Z,27.10
2018-04-29T07:52:40.830Z,25.86
2018-04-29T07:53:40.894Z,25.79
2018-04-29T07:54:40.924Z,25.28
2018-04-29T07:55:40.981Z,25.00
2018-04-29T07:56:41.033Z,25.07
2018-04-29T07:57:41.090Z,24.22
2018-04-29T07:58:41.174Z,23.60
2018-04-29T07:59:41.199Z,23.68
2018-04-29T08:00:41.307Z,23.92
2018-04-29T08:01:41.310Z,23.61
2018-04-29T08:02:41.366Z,23.64
2018-04-29T08:03:41.461Z,23.50
2018-04-29T08:04:41.476Z,23.14
2018-04-29T08:05:41.531Z,23.05
2018-04-29T08:06:41.662Z,23.09
2018-04-29T08:07:42.186Z,23.29
2018-04-29T08:08:41.715Z,22.94
2018-04-29T08:09:41.749Z,22.99
2018-04-29T08:10:41.825Z,23.23
2018-04-29T08:11:41.856Z,23.94
2018-04-29T08:12:41.910Z,24.49
2018-04-29T08:13:41.966Z,24.79
2018-04-29T08:14:42.020Z,25.32
2018-04-29T08:15:42.142Z,25.01
2018-04-29T08:16:42.128Z,24.67
2018-04-29T08:17:42.181Z,24.77
2018-04-29T08:18:42.234Z,25.31
2018-04-29T08:19:42.288Z,25.50
2018-04-29T08:20:42.386Z,25.59
2018-04-29T08:21:42.401Z,24.49
2018-04-29T08:22:42.458Z,24.37
2018-04-29T08:23:42.550Z,24.47
2018-04-29T08:24:42.558Z,25.13
2018-04-29T08:25:42.642Z,25.65
2018-04-29T08:26:42.671Z,25.20
2018-04-29T08:27:42.723Z,24.98
2018-04-29T08:28:42.853Z,25.13
2018-04-29T08:29:42.830Z,25.20
2018-04-29T08:30:42.908Z,25.35
2018-04-29T08:31:42.939Z,24.90
2018-04-29T08:32:42.995Z,24.22
2018-04-29T08:33:43.050Z,23.97
2018-04-29T08:34:43.110Z,23.82
2018-04-29T08:35:43.183Z,24.01
2018-04-29T08:36:43.236Z,24.27
2018-04-29T08:37:43.266Z,24.05
2018-04-29T08:38:43.327Z,24.61
2018-04-29T08:39:43.378Z,24.68
2018-04-29T08:40:43.431Z,25.13
2018-04-29T08:41:43.510Z,25.64
2018-04-29T08:42:43.543Z,25.24
2018-04-29T08:43:43.595Z,25.59
2018-04-29T08:44:43.650Z,25.94
2018-04-29T08:45:43.705Z,26.18
2018-04-29T08:46:43.783Z,25.93
2018-04-29T08:47:43.816Z,26.06
2018-04-29T08:48:43.874Z,25.94
2018-04-29T08:49:43.925Z,25.83
2018-04-29T08:50:43.979Z,25.93
2018-04-29T08:51:44.146Z,26.37
2018-04-29T08:52:44.088Z,26.89
2018-04-29T08:53:44.145Z,27.20
2018-04-29T08:54:44.203Z,27.54
2018-04-29T08:55:44.257Z,26.96
2018-04-29T08:56:44.342Z,26.84
2018-04-29T08:57:44.367Z,27.05
2018-04-29T08:58:44.425Z,25.94
2018-04-29T08:59:44.484Z,25.74
2018-04-29T09:00:44.533Z,25.65
2018-04-29T09:01:44.673Z,25.15
2018-04-29T09:02:44.680Z,25.27
2018-04-29T09:03:44.774Z,25.87
2018-04-29T09:04:44.760Z,26.18
2018-04-29T09:05:44.814Z,26.94
2018-04-29T09:06:44.871Z,27.11
2018-04-29T09:07:44.964Z,27.28
2018-04-29T09:08:44.982Z,27.42
2018-04-29T09:09:45.037Z,27.16
2018-04-29T09:10:45.095Z,26.87
2018-04-29T09:11:45.149Z,26.62
2018-04-29T09:12:45.238Z,26.46
2018-04-29T09:13:45.262Z,25.52
2018-04-29T09:14:45.320Z,25.69
2018-04-29T09:15:45.376Z,25.97
2018-04-29T09:16:45.432Z,26.68
2018-04-29T09:17:45.532Z,27.20
2018-04-29T09:18:45.550Z,27.64
2018-04-29T09:19:45.603Z,27.61
2018-04-29T09:20:45.657Z,27.51
2018-04-29T09:21:45.716Z,26.80
2018-04-29T09:22:45.799Z,25.83
2018-04-29T09:23:45.851Z,25.98
2018-04-29T09:24:45.887Z,26.22
2018-04-29T09:25:45.939Z,26.57
2018-04-29T09:26:45.996Z,26.89
2018-04-29T09:27:46.061Z,26.96
2018-04-29T09:28:46.132Z,27.06
2018-04-29T09:29:46.165Z,27.35
2018-04-29T09:30:46.224Z,27.35
2018-04-29T09:31:46.284Z,27.41
2018-04-29T09:32:46.335Z,27.50
2018-04-29T09:33:46.415Z,27.61
2018-04-29T09:34:46.449Z,27.39
2018-04-29T09:35:46.507Z,27.73
2018-04-29T09:36:46.561Z,28.10
2018-04-29T09:37:46.620Z,28.25
2018-04-29T09:38:46.717Z,28.17
2018-04-29T09:39:46.734Z,28.32
2018-04-29T09:40:46.790Z,28.26
2018-04-29T09:41:46.848Z,28.19
2018-04-29T09:42:46.907Z,28.01
2018-04-29T09:43:46.993Z,27.42
2018-04-29T09:44:47.019Z,27.09
2018-04-29T09:45:47.077Z,26.58
2018-04-29T09:46:47.134Z,26.39
2018-04-29T09:47:47.194Z,26.31
2018-04-29T09:48:47.376Z,26.62
2018-04-29T09:49:47.307Z,26.58
2018-04-29T09:50:47.368Z,26.68
2018-04-29T09:51:47.420Z,27.05
2018-04-29T09:52:47.478Z,27.23
2018-04-29T09:53:47.571Z,26.74
2018-04-29T09:54:47.594Z,26.72
2018-04-29T09:55:47.648Z,26.86
2018-04-29T09:56:47.709Z,26.98
2018-04-29T09:57:47.763Z,26.91
2018-04-29T09:58:47.843Z,26.99
2018-04-29T09:59:47.880Z,27.09
2018-04-29T10:00:47.935Z,26.62
2018-04-29T10:01:48.019Z,26.27
2018-04-29T10:02:48.050Z,26.52
2018-04-29T10:03:48.107Z,26.46
2018-04-29T10:04:48.192Z,26.84
2018-04-29T10:05:48.220Z,27.19
2018-04-29T10:06:48.278Z,27.36
2018-04-29T10:07:48.336Z,27.50
2018-04-29T10:08:48.417Z,27.14
2018-04-29T10:09:48.489Z,26.96
2018-04-29T10:10:48.509Z,27.10
2018-04-29T10:11:48.567Z,27.01
2018-04-29T10:12:48.625Z,27.06
2018-04-29T10:13:48.680Z,26.86
2018-04-29T10:14:48.772Z,27.09
2018-04-29T10:15:48.796Z,27.32
2018-04-29T10:16:48.855Z,27.73
2018-04-29T10:17:48.909Z,27.88
2018-04-29T10:18:49.007Z,27.67
2018-04-29T10:19:49.059Z,27.77
2018-04-29T10:20:49.085Z,27.51
2018-04-29T10:21:49.144Z,27.24
2018-04-29T10:22:49.199Z,26.83
2018-04-29T10:23:49.257Z,26.54
2018-04-29T10:24:49.343Z,26.52
2018-04-29T10:25:49.399Z,26.42
2018-04-29T10:26:49.436Z,26.59
2018-04-29T10:27:49.490Z,26.46
2018-04-29T10:28:49.551Z,26.37
2018-04-29T10:29:49.602Z,25.94
2018-04-29T10:30:49.686Z,25.87
2018-04-29T10:31:49.719Z,25.94
2018-04-29T10:32:49.867Z,26.09
2018-04-29T10:33:49.835Z,26.25
2018-04-29T10:34:49.890Z,26.86
2018-04-29T10:35:49.975Z,27.42
2018-04-29T10:36:50.006Z,27.47
2018-04-29T10:37:50.066Z,27.62
2018-04-29T10:38:50.119Z,28.09
2018-04-29T10:39:50.176Z,28.11
2018-04-29T10:40:50.271Z,27.46
2018-04-29T10:41:50.301Z,27.24
2018-04-29T10:42:50.351Z,27.35
2018-04-29T10:43:50.408Z,26.91
2018-04-29T10:44:50.463Z,27.09
2018-04-29T10:45:50.555Z,27.48
2018-04-29T10:46:50.619Z,27.95
2018-04-29T10:47:50.646Z,28.47
2018-04-29T10:48:50.693Z,28.50
2018-04-29T10:49:50.755Z,28.81
2018-04-29T10:50:50.808Z,28.93
2018-04-29T10:51:50.897Z,28.78
2018-04-29T10:52:50.929Z,28.58
2018-04-29T10:53:50.986Z,28.81
2018-04-29T10:54:51.041Z,28.73
2018-04-29T10:55:51.103Z,28.82
2018-04-29T10:56:51.195Z,28.88
2018-04-29T10:57:51.219Z,29.13
2018-04-29T10:58:51.303Z,28.82
2018-04-29T10:59:51.337Z,28.48
2018-04-29T11:00:51.395Z,28.38
2018-04-29T11:01:51.475Z,28.68
2018-04-29T11:02:51.535Z,28.29
2018-04-29T11:03:51.570Z,28.28
2018-04-29T11:04:51.628Z,28.11
2018-04-29T11:05:51.688Z,27.98
2018-04-29T11:06:51.748Z,27.66
2018-04-29T11:07:51.828Z,27.54
2018-04-29T11:08:51.878Z,27.41
2018-04-29T11:09:51.931Z,27.35
2018-04-29T11:10:51.982Z,27.33
2018-04-29T11:11:52.179Z,27.53
2018-04-29T11:12:52.127Z,27.35
2018-04-29T11:13:52.159Z,26.98
2018-04-29T11:14:52.216Z,26.98
2018-04-29T11:15:52.276Z,26.98
2018-04-29T11:16:52.330Z,27.20
2018-04-29T11:17:52.418Z,27.61
2018-04-29T11:18:52.449Z,27.86
2018-04-29T11:19:52.508Z,28.21
2018-04-29T11:20:52.564Z,28.09
2018-04-29T11:21:52.623Z,28.26
2018-04-29T11:22:52.710Z,28.19
2018-04-29T11:23:52.742Z,28.29
2018-04-29T11:24:52.802Z,28.54
2018-04-29T11:25:52.858Z,28.54
2018-04-29T11:26:52.914Z,28.58
2018-04-29T11:27:53.011Z,28.51
2018-04-29T11:28:53.034Z,28.54
2018-04-29T11:29:53.089Z,28.25
2018-04-29T11:30:53.149Z,27.86
2018-04-29T11:31:53.207Z,26.84
2018-04-29T11:32:53.288Z,26.52
2018-04-29T11:33:53.412Z,26.58
2018-04-29T11:34:53.410Z,26.42
2018-04-29T11:35:53.445Z,26.52
2018-04-29T11:36:53.496Z,26.52
2018-04-29T11:37:53.559Z,26.68
2018-04-29T11:38:53.615Z,26.32
2018-04-29T11:39:53.696Z,26.24
2018-04-29T11:40:53.745Z,26.28
2018-04-29T11:41:53.797Z,25.98
2018-04-29T11:42:53.845Z,25.86
2018-04-29T11:43:53.906Z,25.82
2018-04-29T11:44:53.989Z,26.08
2018-04-29T11:45:54.096Z,26.25
2018-04-29T11:46:54.086Z,26.44
2018-04-29T11:47:54.134Z,26.36
2018-04-29T11:48:54.193Z,26.72
2018-04-29T11:49:54.270Z,26.62
2018-04-29T11:50:55.290Z,26.49
2018-04-29T11:51:54.359Z,26.55
2018-04-29T11:52:54.420Z,26.43
2018-04-29T11:53:54.476Z,26.32
2018-04-29T11:54:54.560Z,26.31
2018-04-29T11:55:54.587Z,26.27
2018-04-29T11:56:54.656Z,25.98
2018-04-29T11:57:54.701Z,25.99
2018-04-29T11:58:54.759Z,25.97
2018-04-29T11:59:54.865Z,25.83
2018-04-29T12:00:54.869Z,25.82
2018-04-29T12:01:54.933Z,25.62
2018-04-29T12:02:54.986Z,25.32
2018-04-29T12:03:55.040Z,25.25
2018-04-29T12:04:55.126Z,25.37
2018-04-29T12:05:55.152Z,25.35
2018-04-29T12:06:55.206Z,25.61
2018-04-29T12:07:55.267Z,25.74
2018-04-29T12:08:55.318Z,25.86
2018-04-29T12:09:55.407Z,25.72
2018-04-29T12:10:55.428Z,25.69
2018-04-29T12:11:55.487Z,25.46
2018-04-29T12:12:55.572Z,25.57
2018-04-29T12:13:55.594Z,25.34
2018-04-29T12:14:55.649Z,25.50
2018-04-29T12:15:55.709Z,25.53
2018-04-29T12:16:55.764Z,25.56
2018-04-29T12:17:55.845Z,25.35
2018-04-29T12:18:55.871Z,25.42
2018-04-29T12:19:55.935Z,25.67
2018-04-29T12:20:55.991Z,25.89
2018-04-29T12:21:56.065Z,26.24
2018-04-29T12:22:56.095Z,26.58
2018-04-29T12:23:56.152Z,26.76
2018-04-29T12:24:56.244Z,26.99
2018-04-29T12:25:56.267Z,27.10
2018-04-29T12:26:56.357Z,27.32
2018-04-29T12:27:56.376Z,27.89
2018-04-29T12:28:56.429Z,27.85
2018-04-29T12:29:56.492Z,27.85
2018-04-29T12:30:56.543Z,27.82
2018-04-29T12:31:56.630Z,27.51
2018-04-29T12:32:56.657Z,27.33
2018-04-29T12:33:56.748Z,27.43
2018-04-29T12:34:56.774Z,27.36
2018-04-29T12:35:56.836Z,27.62
2018-04-29T12:36:56.888Z,27.77
2018-04-29T12:37:56.947Z,27.39
2018-04-29T12:38:57.362Z,27.28
2018-04-29T12:39:57.133Z,27.11
2018-04-29T12:40:57.125Z,27.19
2018-04-29T12:41:57.184Z,27.13
2018-04-29T12:42:57.241Z,27.26
2018-04-29T12:43:57.301Z,26.79
2018-04-29T12:44:57.386Z,27.14
2018-04-29T12:45:57.418Z,27.39
2018-04-29T12:46:57.479Z,27.24
2018-04-29T12:47:57.538Z,27.58
2018-04-29T12:48:57.598Z,28.03
2018-04-29T12:49:57.687Z,27.98
2018-04-29T12:50:57.718Z,28.01
2018-04-29T12:51:57.780Z,27.98
2018-04-29T12:52:57.839Z,27.86